Time;durP1;ratioP1;P1;durP2;ratioP2;P2;SDS_P1;SDS_P2;PMS_P1;PMS_P2;Temp;Humidity;BMP_temperature;BMP_pressure;BME280_temperature;BME280_humidity;BME280_pressure;Samples;Min_cycle;Max_cycle;Signal;HPM_P1;HPM_P2
2023/05/08 04:06:39;;;;;;;10.98;7.55;;;;;;;12.64;69.38;101080.75;5614711;31;82024;-56
2023/05/08 04:10:10;;;;;;;9.45;7.10;;;;;;;12.64;69.38;101080.75;5598762;31;33606;-57
2023/05/08 04:13:17;;;;;;;11.35;8.18;;;;;;;12.14;71.68;101087.16;5603144;31;33933;-56
2023/05/08 04:16:24;;;;;;;9.10;7.30;;;;;;;12.23;73.83;101080.94;5603660;31;33160;-57
2023/05/08 04:19:28;;;;;;;10.82;7.30;;;;;;;12.29;71.35;101084.41;5595516;31;33346;-57
2023/05/08 04:22:32;;;;;;;11.27;7.47;;;;;;;12.41;70.87;101092.16;5596110;31;34357;-56
2023/05/08 04:25:36;;;;;;;9.85;7.37;;;;;;;12.43;70.00;101096.19;5599680;31;34166;-57
2023/05/08 04:28:40;;;;;;;12.68;7.57;;;;;;;12.63;69.90;101097.19;5564095;32;33244;-57
2023/05/08 04:31:44;;;;;;;11.35;7.10;;;;;;;12.54;71.37;101102.31;5582648;31;33644;-56
2023/05/08 04:34:48;;;;;;;8.38;6.72;;;;;;;12.63;76.07;101106.06;5588672;31;34314;-57
2023/05/08 04:37:51;;;;;;;8.57;6.68;;;;;;;12.84;69.21;101106.75;5602839;31;33610;-57
2023/05/08 04:40:54;;;;;;;9.40;6.62;;;;;;;13.03;68.51;101120.38;5601449;31;33418;-57
2023/05/08 04:43:57;;;;;;;8.23;6.78;;;;;;;13.04;67.64;101115.81;5585578;31;33466;-56
2023/05/08 04:46:59;;;;;;;10.80;7.03;;;;;;;13.02;77.40;101115.28;5583210;32;33112;-56
2023/05/08 04:50:01;;;;;;;10.35;6.95;;;;;;;13.17;79.46;101129.44;5584362;31;33410;-56
2023/05/08 04:53:05;;;;;;;6.82;3.40;;;;;;;13.20;71.25;101121.91;5602794;31;34302;-57
2023/05/08 04:56:08;;;;;;;5.60;3.33;;;;;;;13.43;69.90;101134.69;5586010;31;34208;-57
2023/05/08 04:59:11;;;;;;;3.87;2.90;;;;;;;13.53;79.94;101133.81;5583250;31;34514;-57
2023/05/08 05:02:16;;;;;;;3.65;2.83;;;;;;;13.58;67.54;101139.97;5595448;31;33530;-57
2023/05/08 05:05:20;;;;;;;6.18;2.37;;;;;;;13.75;69.24;101144.16;5600557;31;33054;-57
2023/05/08 05:08:24;;;;;;;5.15;2.40;;;;;;;13.71;57.07;101140.41;5601156;31;32881;-56
2023/05/08 05:11:28;;;;;;;2.97;2.20;;;;;;;14.00;72.44;101135.81;5596184;31;33141;-57
2023/05/08 05:14:30;;;;;;;3.35;2.45;;;;;;;14.01;57.51;101136.66;5586006;31;33228;-56
2023/05/08 05:17:34;;;;;;;4.65;2.58;;;;;;;14.11;67.18;101139.25;5571179;32;34518;-57
2023/05/08 05:20:37;;;;;;;2.62;2.15;;;;;;;13.94;63.25;101145.06;5570008;31;33283;-57
2023/05/08 05:23:40;;;;;;;3.78;2.22;;;;;;;13.88;62.14;101151.59;5570245;32;33580;-56
2023/05/08 05:26:42;;;;;;;4.53;2.45;;;;;;;13.70;53.43;101141.50;5570205;31;33437;-57
2023/05/08 05:29:45;;;;;;;2.90;2.37;;;;;;;13.74;56.81;101147.91;5570499;31;33643;-56
2023/05/08 05:32:47;;;;;;;4.80;2.67;;;;;;;13.83;57.42;101157.81;5589694;31;34366;-57
2023/05/08 05:35:51;;;;;;;3.08;2.40;;;;;;;14.02;67.93;101160.62;5586504;31;34645;-58
2023/05/08 05:38:53;;;;;;;3.62;2.30;;;;;;;14.02;63.44;101154.41;5569429;31;33163;-56
2023/05/08 05:41:56;;;;;;;3.28;2.30;;;;;;;13.78;55.60;101157.88;5569965;32;34351;-57
2023/05/08 05:45:00;;;;;;;6.30;2.50;;;;;;;13.63;54.50;101160.69;5569320;31;34280;-57
2023/05/08 05:48:04;;;;;;;3.25;2.50;;;;;;;13.51;54.31;101166.44;5569787;31;33104;-56
2023/05/08 05:51:07;;;;;;;2.95;2.30;;;;;;;13.52;65.05;101173.41;5573897;31;33147;-56
2023/05/08 05:54:09;;;;;;;2.25;2.00;;;;;;;13.54;59.21;101170.44;5569421;31;32210;-57
2023/05/08 05:57:12;;;;;;;2.22;2.03;;;;;;;13.59;54.92;101173.09;5569710;32;33778;-57
2023/05/08 06:00:17;;;;;;;4.50;2.60;;;;;;;13.53;57.08;101177.72;5569657;31;33581;-57
2023/05/08 06:03:20;;;;;;;4.65;2.20;;;;;;;13.81;67.00;101178.06;5570766;31;33586;-56
2023/05/08 06:06:23;;;;;;;4.30;2.08;;;;;;;13.77;61.37;101174.31;5568917;31;33597;-56
2023/05/08 06:09:28;;;;;;;2.90;2.00;;;;;;;13.52;52.69;101168.03;5574150;31;33699;-56
2023/05/08 06:12:31;;;;;;;3.78;2.15;;;;;;;13.57;55.48;101172.56;5567777;31;34326;-57
2023/05/08 06:15:34;;;;;;;2.60;2.08;;;;;;;13.81;54.53;101170.78;5554010;32;33390;-57
2023/05/08 06:18:37;;;;;;;10.95;2.55;;;;;;;13.74;54.52;101172.16;5564288;32;33311;-57
2023/05/08 06:21:42;;;;;;;2.60;2.20;;;;;;;13.99;61.49;101169.25;5558970;31;34184;-57
2023/05/08 06:24:44;;;;;;;5.28;2.20;;;;;;;14.09;60.36;101169.16;5550884;32;34302;-57
2023/05/08 06:27:47;;;;;;;4.95;2.33;;;;;;;14.00;56.39;101176.25;5568379;32;33572;-56
2023/05/08 06:30:50;;;;;;;5.05;2.45;;;;;;;14.16;61.11;101176.94;5569518;31;34363;-57
2023/05/08 06:33:53;;;;;;;6.18;2.30;;;;;;;14.33;75.95;101179.19;5569073;31;34358;-56
2023/05/08 06:36:55;;;;;;;3.47;1.90;;;;;;;14.44;56.25;101172.59;5568898;32;33624;-56
2023/05/08 06:39:58;;;;;;;2.30;1.98;;;;;;;14.10;52.88;101183.44;5566292;31;34259;-56
2023/05/08 06:43:13;;;;;;;5.18;1.90;;;;;;;14.13;56.07;101174.78;5557566;32;33691;-57
2023/05/08 06:46:15;;;;;;;4.43;2.08;;;;;;;14.32;54.34;101180.28;5552456;31;33532;-56
2023/05/08 06:49:18;;;;;;;6.43;2.20;;;;;;;14.45;56.92;101186.91;5554822;32;34316;-57
2023/05/08 06:52:20;;;;;;;3.00;2.10;;;;;;;14.49;52.21;101188.72;5584500;31;33492;-56
2023/05/08 06:55:23;;;;;;;9.75;2.30;;;;;;;14.27;59.52;101185.72;5561721;31;33566;-56
2023/05/08 06:58:26;;;;;;;4.20;2.15;;;;;;;14.49;65.41;101186.03;5560956;32;34395;-57
2023/05/08 07:01:28;;;;;;;3.97;2.20;;;;;;;14.57;54.04;101187.34;5569961;31;33812;-57
2023/05/08 07:04:31;;;;;;;2.65;2.15;;;;;;;14.63;51.60;101188.88;5575896;31;33596;-57
2023/05/08 07:07:33;;;;;;;2.80;2.12;;;;;;;14.65;54.49;101197.50;5569307;31;33426;-57
2023/05/08 07:10:38;;;;;;;4.28;2.10;;;;;;;14.72;55.23;101200.63;5587635;31;33606;-56
2023/05/08 07:13:44;;;;;;;4.80;1.98;;;;;;;14.75;59.43;101199.28;5569113;31;33594;-56
2023/05/08 07:16:47;;;;;;;3.12;1.80;;;;;;;14.82;65.41;101204.31;5557325;31;33637;-56
2023/05/08 07:19:50;;;;;;;4.30;2.08;;;;;;;15.03;54.18;101200.25;5554628;32;33802;-56
2023/05/08 07:22:52;;;;;;;2.90;1.73;;;;;;;14.96;52.41;101208.72;5552569;31;33628;-57
2023/05/08 07:25:55;;;;;;;5.72;1.87;;;;;;;14.94;52.18;101199.31;5564817;31;32169;-57
2023/05/08 07:28:57;;;;;;;3.00;1.90;;;;;;;15.18;53.92;101191.97;5569135;31;34345;-57
2023/05/08 07:31:59;;;;;;;3.80;2.20;;;;;;;15.15;50.32;101191.75;5548943;32;33614;-57
2023/05/08 07:35:02;;;;;;;3.90;2.08;;;;;;;15.25;52.55;101194.31;5551294;32;34908;-57
2023/05/08 07:38:04;;;;;;;3.62;2.15;;;;;;;15.30;51.82;101196.13;5570517;31;33590;-56
2023/05/08 07:41:07;;;;;;;4.28;1.90;;;;;;;15.17;50.63;101192.28;5567692;31;33663;-57
2023/05/08 07:44:09;;;;;;;3.70;2.10;;;;;;;15.20;50.56;101195.19;5577571;31;33595;-57
2023/05/08 07:47:12;;;;;;;2.60;1.73;;;;;;;15.34;52.46;101197.97;5568197;31;34239;-57
2023/05/08 07:50:14;;;;;;;5.85;2.10;;;;;;;15.69;57.76;101190.44;5568043;32;33683;-56
2023/05/08 07:53:17;;;;;;;4.50;1.77;;;;;;;15.73;51.16;101200.38;5568164;31;34129;-57
2023/05/08 07:56:21;;;;;;;3.17;1.80;;;;;;;15.84;55.51;101197.50;5556632;32;32285;-57
2023/05/08 07:59:24;;;;;;;2.08;1.70;;;;;;;15.61;51.46;101193.78;5563639;31;33857;-57
2023/05/08 08:02:29;;;;;;;4.35;1.80;;;;;;;15.73;52.58;101202.28;5567786;31;33702;-56
2023/05/08 08:05:31;;;;;;;2.65;1.60;;;;;;;15.94;54.39;101195.44;5566873;31;33126;-56
2023/05/08 08:08:33;;;;;;;5.70;1.90;;;;;;;16.04;49.05;101193.66;5567555;32;33579;-57
2023/05/08 08:11:36;;;;;;;4.20;2.00;;;;;;;15.78;51.29;101202.19;5567255;32;34372;-57
2023/05/08 08:14:38;;;;;;;6.43;1.98;;;;;;;15.93;49.15;101188.44;5567828;31;32486;-57
2023/05/08 08:17:41;;;;;;;2.75;1.85;;;;;;;16.01;47.62;101189.66;5571369;31;34424;-56
2023/05/08 08:20:43;;;;;;;2.00;1.80;;;;;;;16.03;47.48;101187.47;5572102;31;34667;-57
2023/05/08 08:23:45;;;;;;;3.55;1.90;;;;;;;16.11;53.78;101197.59;5567762;31;33588;-57
2023/05/08 08:26:48;;;;;;;2.60;1.80;;;;;;;16.08;53.28;101189.25;5577281;31;33682;-57
2023/05/08 08:29:52;;;;;;;3.28;1.95;;;;;;;16.23;51.11;101190.91;5575182;31;34509;-56
2023/05/08 08:33:14;;;;;;;4.15;2.10;;;;;;;16.42;51.31;101192.44;5571445;31;33705;-57
2023/05/08 08:36:20;;;;;;;4.70;2.30;;;;;;;16.32;52.53;101189.09;5577542;31;33627;-57
2023/05/08 08:39:22;;;;;;;2.55;1.92;;;;;;;16.55;62.63;101181.91;5566372;31;33273;-56
2023/05/08 08:42:25;;;;;;;7.80;1.92;;;;;;;16.58;48.79;101175.87;5571076;31;34440;-57
2023/05/08 08:45:27;;;;;;;3.85;2.15;;;;;;;16.63;49.84;101178.50;5567375;32;33880;-56
2023/05/08 08:48:30;;;;;;;2.95;1.80;;;;;;;16.51;50.35;101187.13;5565079;32;34243;-57
2023/05/08 08:51:41;;;;;;;3.28;1.83;;;;;;;16.30;52.22;101177.78;5564510;31;33672;-57
2023/05/08 08:54:45;;;;;;;3.10;2.00;;;;;;;16.41;49.08;101174.56;5563657;31;33975;-56
2023/05/08 08:58:21;;;;;;;4.80;2.10;;;;;;;16.46;46.40;101171.00;5557968;31;33691;-57
2023/05/08 09:01:26;;;;;;;3.40;1.40;;;;;;;16.43;49.50;101183.22;5572005;31;33618;-57
2023/05/08 09:04:30;;;;;;;1.42;1.27;;;;;;;16.30;47.90;101183.19;5564082;31;33656;-56
2023/05/08 09:07:33;;;;;;;2.08;1.40;;;;;;;16.60;50.78;101174.50;5586021;31;33559;-57
2023/05/08 09:10:35;;;;;;;4.62;1.70;;;;;;;16.71;47.91;101185.13;5583898;31;33692;-56
2023/05/08 09:13:38;;;;;;;4.90;1.40;;;;;;;16.72;46.07;101171.28;5565608;31;33643;-56
2023/05/08 09:16:40;;;;;;;1.50;1.30;;;;;;;16.52;44.86;101168.97;5555589;31;33882;-57
2023/05/08 09:19:43;;;;;;;2.15;1.50;;;;;;;16.79;48.69;101168.22;5562094;31;33610;-57
2023/05/08 09:22:46;;;;;;;2.60;1.17;;;;;;;16.94;46.80;101162.44;5574987;31;34276;-57
2023/05/08 09:25:52;;;;;;;1.60;1.10;;;;;;;17.01;52.20;101167.47;5567632;31;33589;-56
2023/05/08 09:29:06;;;;;;;;;;;;;;;16.72;43.61;101162.34;5569931;32;33905;-56
2023/05/08 09:32:17;;;;;;;3.50;1.12;;;;;;;16.95;46.28;101164.03;5572386;31;34399;-56
2023/05/08 09:35:19;;;;;;;3.20;0.90;;;;;;;16.88;44.34;101160.94;5553990;31;33761;-57
2023/05/08 09:38:39;;;;;;;2.67;0.80;;;;;;;16.84;43.98;101158.06;5575163;31;33646;-56
2023/05/08 09:41:59;;;;;;;3.97;1.02;;;;;;;16.74;41.16;101160.94;5563641;31;33704;-57
2023/05/08 09:45:01;;;;;;;5.97;1.20;;;;;;;16.86;41.96;101158.56;5568050;31;33424;-57
2023/05/08 09:48:03;;;;;;;2.12;1.00;;;;;;;17.10;43.62;101157.50;5566219;31;33611;-58
2023/05/08 09:51:06;;;;;;;3.10;1.00;;;;;;;17.40;55.39;101158.72;5561103;31;34259;-56
2023/05/08 09:54:16;;;;;;;1.58;0.90;;;;;;;17.47;51.35;101161.00;5550014;32;33627;-57
2023/05/08 09:57:20;;;;;;;5.25;0.90;;;;;;;17.45;42.85;101160.50;5562071;31;33621;-57
2023/05/08 10:00:25;;;;;;;1.90;0.90;;;;;;;17.35;40.12;101150.69;5588861;31;34400;-57
2023/05/08 10:03:48;;;;;;;1.23;0.90;;;;;;;17.27;43.59;101148.72;5588864;31;34283;-57
2023/05/08 10:06:57;;;;;;;2.15;1.42;;;;;;;17.38;50.49;101150.91;5582541;31;33689;-56
2023/05/08 10:10:05;;;;;;;2.37;1.02;;;;;;;17.45;41.15;101152.37;5589368;31;33722;-56
2023/05/08 10:13:07;;;;;;;3.58;0.82;;;;;;;17.09;41.93;101151.28;5588284;31;34264;-56
2023/05/08 10:16:14;;;;;;;2.05;0.90;;;;;;;17.12;41.48;101149.88;5575474;31;33735;-57
2023/05/08 10:19:18;;;;;;;1.02;0.80;;;;;;;17.17;41.20;101136.22;5578115;31;34351;-56
2023/05/08 10:22:24;;;;;;;3.25;0.95;;;;;;;17.14;40.42;101129.50;5589190;31;34401;-56
2023/05/08 10:25:31;;;;;;;3.42;1.00;;;;;;;17.05;41.75;101136.75;5588259;31;33455;-57
2023/05/08 10:28:54;;;;;;;1.73;0.90;;;;;;;17.12;42.30;101139.06;5584511;31;33742;-56
2023/05/08 10:31:58;;;;;;;1.95;0.90;;;;;;;17.21;41.71;101129.06;5576092;31;33699;-56
2023/05/08 10:35:02;;;;;;;1.65;0.70;;;;;;;17.17;40.61;101127.28;5585084;31;33809;-56
2023/05/08 10:38:07;;;;;;;2.10;0.90;;;;;;;17.28;44.51;101115.88;5588468;31;33878;-55
2023/05/08 10:41:10;;;;;;;1.80;0.90;;;;;;;17.49;44.39;101126.28;5583440;31;33285;-56
2023/05/08 10:44:13;;;;;;;1.42;0.95;;;;;;;17.64;42.90;101120.44;5569136;32;34360;-57
2023/05/08 10:47:20;;;;;;;1.23;0.77;;;;;;;17.64;40.22;101125.06;5580189;31;34421;-56
2023/05/08 10:50:30;;;;;;;1.30;0.80;;;;;;;17.57;41.09;101118.19;5579539;31;33685;-57
2023/05/08 10:53:42;;;;;;;1.48;0.85;;;;;;;17.65;42.52;101115.81;5570559;31;33668;-56
2023/05/08 10:56:47;;;;;;;2.28;0.70;;;;;;;17.62;38.91;101112.63;5589117;31;33759;-56
2023/05/08 10:59:49;;;;;;;2.65;0.90;;;;;;;17.61;38.91;101107.50;5588678;31;34337;-56
2023/05/08 11:03:07;;;;;;;1.05;0.80;;;;;;;17.70;41.08;101110.28;5586906;31;33643;-57
2023/05/08 11:06:42;;;;;;;1.85;0.80;;;;;;;17.65;38.55;101100.38;5588734;31;34423;-56
2023/05/08 11:09:46;;;;;;;3.05;0.85;;;;;;;17.57;38.69;101104.63;5570352;31;33672;-56
2023/05/08 11:12:50;;;;;;;1.75;0.82;;;;;;;17.74;38.56;101092.28;5559960;31;33997;-57
2023/05/08 11:15:52;;;;;;;0.73;0.62;;;;;;;17.86;37.83;101108.03;5553280;32;33456;-56
2023/05/08 11:19:17;;;;;;;0.93;0.90;;;;;;;17.78;40.60;101088.69;5571604;31;33661;-56
2023/05/08 11:22:25;;;;;;;1.12;1.00;;;;;;;18.02;41.44;101098.37;5588743;31;34538;-57
2023/05/08 11:25:42;;;;;;;0.90;0.88;;;;;;;18.19;41.82;101094.91;5582382;31;33721;-56
2023/05/08 11:28:57;;;;;;;1.42;0.70;;;;;;;18.22;37.22;101086.16;5582127;31;33695;-56
2023/05/08 11:31:59;;;;;;;1.62;1.00;;;;;;;18.04;37.23;101077.91;5583580;31;33614;-57
2023/05/08 11:35:02;;;;;;;1.20;1.10;;;;;;;18.17;44.70;101081.66;5563965;31;33720;-56
2023/05/08 11:38:27;;;;;;;2.28;0.85;;;;;;;18.17;38.95;101089.78;5561824;31;33669;-57
2023/05/08 11:41:29;;;;;;;1.60;0.80;;;;;;;18.29;40.86;101076.44;5574675;31;34408;-56
2023/05/08 11:44:32;;;;;;;2.05;1.00;;;;;;;18.46;41.16;101083.00;5566979;31;33715;-56
2023/05/08 11:47:40;;;;;;;1.17;0.85;;;;;;;18.61;37.22;101082.56;5569483;31;33641;-57
2023/05/08 11:50:43;;;;;;;0.80;0.62;;;;;;;18.73;40.92;101079.25;5572901;31;33734;-56
2023/05/08 11:53:46;;;;;;;3.47;0.85;;;;;;;18.67;38.91;101081.28;5577811;31;34299;-57
2023/05/08 11:56:50;;;;;;;0.73;0.73;;;;;;;18.63;41.87;101077.63;5579141;31;34275;-57
2023/05/08 11:59:52;;;;;;;0.98;0.80;;;;;;;18.76;42.47;101084.06;5568108;31;34305;-56
2023/05/08 12:02:55;;;;;;;0.60;0.60;;;;;;;18.85;40.23;101081.34;5568043;32;33704;-56
2023/05/08 12:05:58;;;;;;;2.12;0.80;;;;;;;18.82;35.61;101076.56;5567681;32;33969;-57
2023/05/08 12:09:04;;;;;;;1.73;0.90;;;;;;;18.92;38.73;101076.25;5568481;32;34320;-57
2023/05/08 12:12:06;;;;;;;1.37;1.00;;;;;;;18.96;45.39;101071.75;5568363;32;34324;-58
2023/05/08 12:15:13;;;;;;;1.83;0.77;;;;;;;18.97;40.06;101081.50;5566289;32;33245;-56
2023/05/08 12:18:16;;;;;;;1.05;0.70;;;;;;;19.07;42.77;101086.59;5567765;32;33631;-57
2023/05/08 12:21:20;;;;;;;0.80;0.62;;;;;;;19.00;36.60;101078.16;5567960;32;33340;-57
2023/05/08 12:24:24;;;;;;;0.75;0.60;;;;;;;19.06;41.81;101087.75;5568358;32;34326;-57
2023/05/08 12:27:27;;;;;;;1.08;0.90;;;;;;;19.00;39.80;101081.66;5569527;32;34325;-57
2023/05/08 12:30:30;;;;;;;3.33;0.90;;;;;;;19.05;39.37;101079.91;5569436;32;33729;-57
2023/05/08 12:33:33;;;;;;;2.03;0.90;;;;;;;18.96;35.88;101082.62;5569724;32;33893;-56
2023/05/08 12:36:36;;;;;;;1.98;0.60;;;;;;;18.93;36.34;101078.63;5570555;32;33609;-57
2023/05/08 12:39:43;;;;;;;1.08;0.75;;;;;;;18.82;36.62;101071.91;5569568;32;33635;-56
2023/05/08 12:42:48;;;;;;;1.95;0.93;;;;;;;18.87;37.74;101076.38;5570680;32;33681;-57
2023/05/08 12:45:51;;;;;;;1.12;0.70;;;;;;;18.96;38.80;101077.19;5570496;32;33711;-57
2023/05/08 12:49:03;;;;;;;5.15;1.10;;;;;;;19.01;38.04;101069.69;5570469;32;33709;-57
2023/05/08 12:52:07;;;;;;;2.30;0.88;;;;;;;18.94;39.82;101073.97;5564295;32;34254;-58
2023/05/08 12:55:28;;;;;;;2.30;0.90;;;;;;;19.01;37.86;101077.84;5559843;32;33208;-57
2023/05/08 12:58:32;;;;;;;1.37;0.70;;;;;;;19.23;36.49;101086.94;5550876;32;33742;-56
2023/05/08 13:01:34;;;;;;;12.43;0.98;;;;;;;19.13;36.86;101079.91;5550796;32;33594;-57
2023/05/08 13:04:37;;;;;;;4.03;0.90;;;;;;;19.18;37.86;101076.25;5550343;32;34331;-56
2023/05/08 13:07:40;;;;;;;3.97;0.80;;;;;;;19.20;48.70;101071.25;5550622;32;33777;-57
2023/05/08 13:10:45;;;;;;;6.30;1.20;;;;;;;19.23;37.64;101084.22;5550786;32;34247;-56
2023/05/08 13:13:48;;;;;;;10.18;1.10;;;;;;;19.27;40.28;101070.78;5550371;32;34440;-57
2023/05/08 13:16:50;;;;;;;2.30;0.77;;;;;;;19.21;34.30;101070.16;5550123;32;34208;-57
2023/05/08 13:19:53;;;;;;;0.60;0.60;;;;;;;19.22;37.54;101074.47;5562754;32;33725;-57
2023/05/08 13:22:55;;;;;;;3.47;1.00;;;;;;;19.25;35.57;101079.25;5570425;32;33871;-57
2023/05/08 13:25:57;;;;;;;3.12;0.80;;;;;;;19.29;33.41;101077.50;5563985;32;33898;-57
2023/05/08 13:29:00;;;;;;;2.78;1.02;;;;;;;19.28;35.97;101078.63;5550484;32;34381;-57
2023/05/08 13:32:02;;;;;;;6.87;1.12;;;;;;;19.23;37.37;101076.84;5550173;32;33812;-57
2023/05/08 13:35:05;;;;;;;10.68;1.35;;;;;;;19.35;36.94;101089.81;5550269;32;33709;-57
2023/05/08 13:38:07;;;;;;;7.90;1.25;;;;;;;19.41;34.45;101082.28;5557882;32;34343;-57
2023/05/08 13:41:10;;;;;;;8.60;1.20;;;;;;;19.30;32.03;101076.38;5566601;32;33701;-57
2023/05/08 13:44:12;;;;;;;5.43;1.10;;;;;;;19.28;35.90;101075.91;5569395;32;33685;-57
2023/05/08 13:47:14;;;;;;;5.05;1.30;;;;;;;19.37;35.49;101071.25;5569343;32;34258;-57
2023/05/08 13:50:20;;;;;;;4.00;1.05;;;;;;;19.35;38.26;101075.41;5562391;32;34375;-57
2023/05/08 13:53:22;;;;;;;3.22;1.20;;;;;;;19.39;36.77;101079.09;5569522;32;33649;-57
2023/05/08 13:56:24;;;;;;;5.70;1.12;;;;;;;19.47;32.05;101065.47;5569158;32;33646;-57
2023/05/08 13:59:27;;;;;;;5.93;1.10;;;;;;;19.39;35.57;101082.59;5568955;32;34322;-57
2023/05/08 14:02:29;;;;;;;1.30;0.82;;;;;;;19.33;33.39;101083.09;5559846;32;33635;-57
2023/05/08 14:05:33;;;;;;;3.83;1.23;;;;;;;19.35;35.74;101084.37;5556092;32;33701;-57
2023/05/08 14:08:35;;;;;;;1.15;1.00;;;;;;;19.36;33.09;101079.72;5565677;32;33770;-57
2023/05/08 14:11:47;;;;;;;4.18;0.95;;;;;;;19.28;30.82;101083.25;5553238;32;34434;-58
2023/05/08 14:14:49;;;;;;;2.75;0.90;;;;;;;19.25;28.87;101080.06;5553009;32;34536;-56
2023/05/08 14:17:51;;;;;;;1.62;0.90;;;;;;;19.27;29.92;101076.22;5549308;32;33569;-57
2023/05/08 14:20:54;;;;;;;0.95;0.75;;;;;;;19.34;29.66;101079.25;5549219;32;33706;-57
2023/05/08 14:24:00;;;;;;;2.00;0.95;;;;;;;19.30;29.36;101072.84;5552943;32;33632;-58
2023/05/08 14:27:04;;;;;;;2.70;1.00;;;;;;;19.41;33.43;101082.28;5560724;32;34461;-57
2023/05/08 14:30:07;;;;;;;11.57;1.27;;;;;;;19.44;29.45;101082.44;5565862;32;33715;-57
2023/05/08 14:33:10;;;;;;;4.75;0.80;;;;;;;19.38;28.17;101088.37;5558649;32;33730;-57
2023/05/08 14:36:12;;;;;;;2.20;0.75;;;;;;;19.42;30.35;101097.47;5569600;32;33634;-57
2023/05/08 14:39:14;;;;;;;3.70;1.00;;;;;;;19.40;28.78;101081.50;5568994;32;34361;-57
2023/05/08 14:42:17;;;;;;;6.25;1.33;;;;;;;19.45;32.30;101086.75;5569037;32;33453;-57
2023/05/08 14:45:24;;;;;;;7.30;1.20;;;;;;;19.45;27.18;101094.09;5568944;32;34281;-57
2023/05/08 14:48:27;;;;;;;1.58;0.80;;;;;;;19.43;29.31;101083.53;5568266;32;33922;-57
2023/05/08 14:51:30;;;;;;;2.47;1.27;;;;;;;19.43;29.39;101080.81;5566289;32;33752;-57
2023/05/08 14:54:32;;;;;;;2.25;0.88;;;;;;;19.36;29.26;101085.16;5568808;32;33274;-57
2023/05/08 14:57:35;;;;;;;3.25;1.00;;;;;;;19.35;31.22;101087.09;5568383;32;34314;-57
2023/05/08 15:00:38;;;;;;;2.70;0.77;;;;;;;19.36;37.56;101094.09;5568770;32;34366;-58
2023/05/08 15:03:40;;;;;;;2.42;1.00;;;;;;;19.34;32.18;101088.22;5568773;32;34318;-57
2023/05/08 15:06:43;;;;;;;2.03;0.85;;;;;;;19.19;30.22;101086.78;5555946;32;34225;-57
2023/05/08 15:09:46;;;;;;;2.50;0.80;;;;;;;19.22;29.53;101091.56;5548944;32;33860;-56
2023/05/08 15:12:49;;;;;;;3.42;1.00;;;;;;;19.32;32.15;101081.50;5549757;32;34074;-57
2023/05/08 15:15:51;;;;;;;1.12;1.00;;;;;;;19.30;29.33;101084.53;5549711;32;33650;-57
2023/05/08 15:18:54;;;;;;;3.20;1.10;;;;;;;19.38;40.55;101080.22;5549906;32;34411;-56
2023/05/08 15:21:56;;;;;;;3.00;1.10;;;;;;;19.31;28.65;101088.84;5549463;32;33754;-57
2023/05/08 15:25:01;;;;;;;2.78;1.25;;;;;;;19.29;40.88;101088.37;5549321;32;33623;-57
2023/05/08 15:28:03;;;;;;;3.22;1.10;;;;;;;19.35;33.43;101083.56;5549691;32;33817;-57
2023/05/08 15:31:06;;;;;;;7.40;1.73;;;;;;;19.27;31.50;101084.37;5549398;32;34402;-57
2023/05/08 15:34:08;;;;;;;4.60;1.12;;;;;;;19.22;31.75;101083.41;5549767;32;33685;-57
2023/05/08 15:37:11;;;;;;;3.12;1.10;;;;;;;19.29;31.89;101084.84;5549507;32;34366;-57
2023/05/08 15:40:13;;;;;;;1.52;1.00;;;;;;;19.35;31.33;101084.37;5549400;32;34327;-57
2023/05/08 15:43:15;;;;;;;1.80;1.20;;;;;;;19.31;32.99;101082.62;5549306;32;34389;-57
2023/05/08 15:46:17;;;;;;;1.67;1.20;;;;;;;19.25;31.20;101085.50;5549822;32;34388;-58
